createdAt,value
2022-08-25T00:01:20.874Z,38.47
2022-08-25T00:04:11.027Z,40.50
2022-08-25T00:07:02.238Z,35.80
2022-08-25T00:09:48.433Z,37.67
2022-08-25T00:12:34.091Z,38.38
2022-08-25T00:15:23.511Z,41.30
2022-08-25T00:18:11.526Z,39.22
2022-08-25T00:21:06.159Z,39.45
2022-08-25T00:23:51.890Z,37.75
2022-08-25T00:26:43.865Z,39.67
2022-08-25T00:29:31.093Z,37.80
2022-08-25T00:32:18.406Z,39.65
2022-08-25T00:35:04.977Z,40.88
2022-08-25T00:37:50.981Z,37.78
2022-08-25T00:40:37.721Z,41.40
2022-08-25T00:43:25.199Z,39.25
2022-08-25T00:46:13.436Z,39.95
2022-08-25T00:49:25.306Z,38.38
2022-08-25T00:52:14.675Z,38.75
2022-08-25T00:55:15.347Z,37.78
2022-08-25T00:58:07.644Z,39.03
2022-08-25T01:00:56.798Z,35.42
2022-08-25T01:03:42.728Z,34.00
2022-08-25T01:06:33.774Z,35.22
2022-08-25T01:09:20.227Z,34.78
2022-08-25T01:12:06.378Z,33.72
2022-08-25T01:14:53.679Z,33.78
2022-08-25T01:17:48.685Z,29.75
2022-08-25T01:20:34.794Z,32.10
2022-08-25T01:23:22.849Z,31.17
2022-08-25T01:26:16.172Z,29.77
2022-08-25T01:29:21.651Z,28.67
2022-08-25T01:32:13.178Z,27.70
2022-08-25T01:34:58.919Z,27.90
2022-08-25T01:37:44.937Z,28.02
2022-08-25T01:40:32.048Z,26.05
2022-08-25T01:43:37.190Z,28.08
2022-08-25T01:46:23.230Z,24.58
2022-08-25T01:49:10.550Z,23.77
2022-08-25T01:52:32.068Z,25.13
2022-08-25T01:55:18.216Z,27.02
2022-08-25T01:58:04.091Z,24.00
2022-08-25T02:00:54.441Z,24.60
2022-08-25T02:03:42.658Z,22.30
2022-08-25T02:06:35.066Z,21.73
2022-08-25T02:09:21.257Z,21.30
2022-08-25T02:12:09.205Z,22.52
2022-08-25T02:14:54.883Z,20.30
2022-08-25T02:17:40.795Z,20.08
2022-08-25T02:20:26.861Z,20.00
2022-08-25T02:23:12.970Z,21.02
2022-08-25T02:25:58.737Z,19.20
2022-08-25T02:28:46.084Z,19.35
2022-08-25T02:31:32.132Z,17.98
2022-08-25T02:34:18.515Z,16.33
2022-08-25T02:37:04.556Z,20.23
2022-08-25T02:39:50.271Z,17.75
2022-08-25T02:42:36.278Z,17.55
2022-08-25T02:45:22.218Z,17.33
2022-08-25T02:48:08.116Z,17.55
2022-08-25T02:50:54.005Z,20.13
2022-08-25T02:53:42.340Z,18.55
2022-08-25T02:56:29.174Z,17.42
2022-08-25T02:59:17.479Z,18.80
2022-08-25T03:02:03.321Z,22.55
2022-08-25T03:04:49.119Z,17.88
2022-08-25T03:07:35.626Z,19.27
2022-08-25T03:10:21.221Z,20.40
2022-08-25T03:13:07.169Z,17.17
2022-08-25T03:15:52.753Z,17.25
2022-08-25T03:18:40.697Z,18.15
2022-08-25T03:21:27.636Z,17.33
2022-08-25T03:24:13.463Z,17.90
2022-08-25T03:26:59.378Z,18.08
2022-08-25T03:29:45.543Z,22.02
2022-08-25T03:32:31.304Z,20.75
2022-08-25T03:35:17.253Z,19.05
2022-08-25T03:38:03.540Z,17.63
2022-08-25T03:40:50.031Z,18.65
2022-08-25T03:43:35.479Z,16.55
2022-08-25T03:46:27.973Z,15.50
2022-08-25T03:49:16.680Z,16.42
2022-08-25T03:52:02.468Z,14.35
2022-08-25T03:54:48.773Z,13.93
2022-08-25T03:57:34.623Z,17.73
2022-08-25T04:00:21.283Z,22.00
2022-08-25T04:03:07.272Z,14.98
2022-08-25T04:05:52.849Z,15.00
2022-08-25T04:08:38.620Z,15.52
2022-08-25T04:11:24.949Z,12.00
2022-08-25T04:14:12.971Z,12.18
2022-08-25T04:17:01.765Z,11.23
2022-08-25T04:19:47.839Z,11.38
2022-08-25T04:22:36.760Z,14.32
2022-08-25T04:25:22.591Z,15.23
2022-08-25T04:28:09.492Z,12.82
2022-08-25T04:30:55.462Z,13.13
2022-08-25T04:33:42.089Z,10.50
2022-08-25T04:36:27.619Z,11.00
2022-08-25T04:39:13.545Z,9.95
2022-08-25T04:42:00.787Z,14.43
2022-08-25T04:44:46.952Z,13.18
2022-08-25T04:47:37.888Z,11.35
2022-08-25T04:50:23.164Z,11.25
2022-08-25T04:53:08.819Z,9.93
2022-08-25T04:55:54.756Z,12.65
2022-08-25T04:58:41.373Z,9.57
2022-08-25T05:01:27.752Z,11.25
2022-08-25T05:04:28.042Z,10.65
2022-08-25T05:07:14.633Z,14.93
2022-08-25T05:10:00.425Z,9.88
2022-08-25T05:12:47.084Z,9.80
2022-08-25T05:15:50.916Z,12.98
2022-08-25T05:18:36.951Z,10.48
2022-08-25T05:21:25.909Z,10.98
2022-08-25T05:24:11.819Z,11.52
2022-08-25T05:26:58.057Z,9.75
2022-08-25T05:29:43.988Z,10.93
2022-08-25T05:32:29.670Z,10.27
2022-08-25T05:35:16.188Z,11.95
2022-08-25T05:38:04.229Z,9.45
2022-08-25T05:41:16.116Z,9.45
2022-08-25T05:44:01.608Z,10.25
2022-08-25T05:46:47.645Z,8.88
2022-08-25T05:49:33.581Z,13.32
2022-08-25T05:52:20.293Z,12.18
2022-08-25T05:55:06.818Z,11.95
2022-08-25T05:57:52.585Z,10.27
2022-08-25T06:00:39.481Z,10.40
2022-08-25T06:03:25.275Z,12.35
2022-08-25T06:06:11.120Z,13.25
2022-08-25T06:08:56.868Z,10.82
2022-08-25T06:11:43.017Z,9.48
2022-08-25T06:14:28.516Z,13.13
2022-08-25T06:17:14.402Z,10.27
2022-08-25T06:20:00.442Z,9.77
2022-08-25T06:22:46.683Z,9.73
2022-08-25T06:25:33.844Z,8.82
2022-08-25T06:28:20.199Z,11.25
2022-08-25T06:31:06.356Z,13.18
2022-08-25T06:33:52.965Z,11.98
2022-08-25T06:36:38.925Z,10.20
2022-08-25T06:39:24.421Z,11.10
2022-08-25T06:42:10.571Z,8.95
2022-08-25T06:44:55.840Z,14.02
2022-08-25T06:47:41.799Z,8.80
2022-08-25T06:50:27.534Z,9.48
2022-08-25T06:53:13.870Z,9.05
2022-08-25T06:56:03.359Z,9.23
2022-08-25T06:58:51.726Z,7.43
2022-08-25T07:01:37.782Z,10.55
2022-08-25T07:04:24.296Z,17.02
2022-08-25T07:07:11.997Z,9.85
2022-08-25T07:09:57.463Z,10.68
2022-08-25T07:12:43.266Z,7.88
2022-08-25T07:15:28.952Z,8.30
2022-08-25T07:18:14.376Z,9.10
2022-08-25T07:21:00.585Z,7.72
2022-08-25T07:23:46.285Z,6.80
2022-08-25T07:26:38.120Z,18.30
2022-08-25T07:29:33.729Z,10.45
2022-08-25T07:32:19.790Z,9.27
2022-08-25T07:35:15.936Z,9.52
2022-08-25T07:38:06.627Z,6.50
2022-08-25T07:41:02.460Z,10.00
2022-08-25T07:43:48.552Z,8.15
2022-08-25T07:46:36.190Z,9.32
2022-08-25T07:49:24.247Z,5.38
2022-08-25T07:52:09.750Z,11.55
2022-08-25T07:54:55.745Z,10.23
2022-08-25T07:57:42.225Z,6.30
2022-08-25T08:00:30.184Z,6.75
2022-08-25T08:03:29.399Z,8.52
2022-08-25T08:06:24.034Z,6.10
2022-08-25T08:09:09.735Z,8.90
2022-08-25T08:11:55.554Z,11.43
2022-08-25T08:14:45.091Z,8.90
2022-08-25T08:17:32.060Z,5.95
2022-08-25T08:20:17.809Z,13.60
2022-08-25T08:23:08.907Z,8.02
2022-08-25T08:25:55.457Z,6.28
2022-08-25T08:28:43.477Z,4.85
2022-08-25T08:31:29.456Z,5.40
2022-08-25T08:34:15.982Z,6.68
2022-08-25T08:37:02.049Z,7.10
2022-08-25T08:39:48.195Z,6.85
2022-08-25T08:43:06.426Z,7.45
2022-08-25T08:45:53.757Z,6.28
2022-08-25T08:48:54.325Z,7.18
2022-08-25T08:51:53.310Z,6.57
2022-08-25T08:54:42.496Z,7.78
2022-08-25T08:57:29.745Z,6.03
2022-08-25T09:00:17.871Z,5.03
2022-08-25T09:03:12.011Z,5.90
2022-08-25T09:06:03.577Z,6.43
2022-08-25T09:08:55.577Z,8.85
2022-08-25T09:11:54.164Z,5.35
2022-08-25T09:15:12.677Z,6.72
2022-08-25T09:18:18.210Z,5.15
2022-08-25T09:21:31.318Z,6.65
2022-08-25T09:25:18.741Z,7.10
2022-08-25T09:28:21.342Z,4.75
2022-08-25T09:31:42.601Z,6.03
2022-08-25T09:34:34.317Z,6.68
2022-08-25T09:37:21.135Z,7.82
2022-08-25T09:40:07.351Z,4.43
2022-08-25T09:42:57.926Z,6.10
2022-08-25T09:45:47.836Z,6.93
2022-08-25T09:48:43.846Z,3.35
2022-08-25T09:51:42.616Z,5.47
2022-08-25T09:54:34.041Z,5.80
2022-08-25T09:57:36.874Z,3.45
2022-08-25T10:00:31.061Z,7.13
2022-08-25T10:03:24.586Z,5.13
2022-08-25T10:06:15.910Z,7.00
2022-08-25T10:11:52.678Z,5.70
2022-08-25T10:14:44.289Z,7.47
2022-08-25T10:17:33.664Z,5.53
2022-08-25T10:20:22.853Z,4.65
2022-08-25T10:23:14.029Z,4.22
2022-08-25T10:26:04.852Z,7.33
2022-08-25T10:29:09.184Z,3.93
2022-08-25T10:32:11.933Z,3.17
2022-08-25T10:34:59.638Z,3.53
2022-08-25T10:37:51.362Z,3.90
2022-08-25T10:40:51.077Z,6.28
2022-08-25T10:44:07.443Z,4.70
2022-08-25T10:47:17.812Z,4.65
2022-08-25T10:50:23.788Z,3.92
2022-08-25T10:53:45.228Z,7.72
2022-08-25T10:56:40.923Z,4.43
2022-08-25T10:59:51.897Z,5.50
2022-08-25T11:03:12.683Z,6.28
2022-08-25T11:06:05.507Z,5.53
2022-08-25T11:09:00.180Z,3.58
2022-08-25T11:11:53.952Z,5.35
2022-08-25T11:14:57.144Z,5.72
2022-08-25T11:17:57.944Z,7.18
2022-08-25T11:21:09.665Z,4.05
2022-08-25T11:24:26.514Z,6.80
2022-08-25T11:27:24.328Z,5.43
2022-08-25T11:30:14.137Z,4.85
2022-08-25T11:33:00.137Z,5.72
2022-08-25T11:35:55.048Z,4.32
2022-08-25T11:39:12.490Z,5.47
2022-08-25T11:42:05.761Z,4.43
2022-08-25T11:45:27.313Z,6.75
2022-08-25T11:48:18.969Z,2.92
2022-08-25T11:54:12.793Z,5.90
2022-08-25T11:57:17.928Z,6.07
2022-08-25T12:00:12.325Z,5.03
2022-08-25T12:03:01.402Z,3.90
2022-08-25T12:05:52.565Z,2.80
2022-08-25T12:09:00.501Z,4.95
2022-08-25T12:11:58.163Z,4.07
2022-08-25T12:14:45.752Z,7.65
2022-08-25T12:17:39.671Z,3.40
2022-08-25T12:20:54.918Z,6.38
2022-08-25T12:24:02.859Z,3.85
2022-08-25T12:26:54.585Z,3.15
2022-08-25T12:32:45.633Z,4.25
2022-08-25T12:35:53.559Z,2.30
2022-08-25T12:38:47.315Z,4.53
2022-08-25T12:42:11.882Z,4.07
2022-08-25T12:45:25.678Z,2.47
2022-08-25T12:48:31.788Z,3.33
2022-08-25T12:51:23.200Z,3.55
2022-08-25T13:00:07.262Z,3.83
2022-08-25T13:03:27.498Z,3.97
2022-08-25T13:06:40.618Z,2.90
2022-08-25T13:09:48.246Z,3.38
2022-08-25T13:12:47.197Z,3.13
2022-08-25T13:15:45.086Z,5.75
2022-08-25T13:18:38.791Z,3.08
2022-08-25T13:21:37.526Z,3.05
2022-08-25T13:24:40.707Z,3.40
2022-08-25T13:27:28.096Z,3.78
2022-08-25T13:30:24.388Z,3.67
2022-08-25T13:33:21.939Z,2.42
2022-08-25T13:36:34.965Z,3.35
2022-08-25T13:39:45.993Z,2.72
2022-08-25T13:42:32.599Z,5.15
2022-08-25T13:45:26.254Z,4.32
2022-08-25T13:48:20.884Z,6.18
2022-08-25T13:51:31.356Z,3.08
2022-08-25T13:54:39.164Z,2.97
2022-08-25T13:57:30.584Z,4.72
2022-08-25T14:00:31.897Z,6.75
2022-08-25T14:03:52.664Z,2.83
2022-08-25T14:06:39.151Z,3.42
2022-08-25T14:09:28.083Z,3.30
2022-08-25T14:12:47.828Z,4.07
2022-08-25T14:18:31.031Z,4.75
2022-08-25T14:21:22.599Z,2.97
2022-08-25T14:24:08.412Z,3.95
2022-08-25T14:26:56.774Z,3.28
2022-08-25T14:29:42.673Z,2.67
2022-08-25T14:32:28.659Z,3.13
2022-08-25T14:35:14.003Z,4.38
2022-08-25T14:38:09.298Z,2.53
2022-08-25T14:40:55.179Z,3.25
2022-08-25T14:43:45.276Z,3.15
2022-08-25T14:46:33.992Z,2.92
2022-08-25T14:49:24.659Z,3.90
2022-08-25T14:52:20.020Z,2.90
2022-08-25T14:55:10.150Z,3.33
2022-08-25T14:57:55.529Z,2.58
2022-08-25T15:00:44.553Z,3.50
2022-08-25T15:03:38.168Z,3.55
2022-08-25T15:06:24.007Z,2.55
2022-08-25T15:09:12.186Z,3.50
2022-08-25T15:11:58.298Z,3.17
2022-08-25T15:14:43.840Z,4.68
2022-08-25T15:17:31.367Z,3.38
2022-08-25T15:20:17.141Z,3.72
2022-08-25T15:23:03.345Z,3.00
2022-08-25T15:25:52.605Z,3.30
2022-08-25T15:28:42.672Z,4.28
2022-08-25T15:31:30.364Z,3.80
2022-08-25T15:34:16.704Z,6.65
2022-08-25T15:37:14.784Z,3.85
2022-08-25T15:40:00.553Z,2.97
2022-08-25T15:42:46.802Z,4.18
2022-08-25T15:45:33.022Z,5.40
2022-08-25T15:48:19.054Z,7.45
2022-08-25T15:51:05.393Z,5.43
2022-08-25T15:53:50.998Z,4.47
2022-08-25T15:56:37.121Z,4.40
2022-08-25T15:59:23.951Z,2.50
2022-08-25T16:02:15.094Z,3.08
2022-08-25T16:05:01.523Z,4.22
2022-08-25T16:07:51.771Z,3.03
2022-08-25T16:10:40.518Z,2.78
2022-08-25T16:13:26.247Z,3.22
2022-08-25T16:16:12.275Z,5.82
2022-08-25T16:18:58.419Z,3.70
2022-08-25T16:21:47.155Z,2.92
2022-08-25T16:24:34.219Z,3.70
2022-08-25T16:27:24.438Z,3.35
2022-08-25T16:30:17.512Z,4.05
2022-08-25T16:33:03.559Z,2.83
2022-08-25T16:35:51.684Z,3.38
2022-08-25T16:38:39.244Z,4.20
2022-08-25T16:41:33.860Z,3.55
2022-08-25T16:44:22.384Z,3.45
2022-08-25T16:47:08.918Z,2.75
2022-08-25T16:49:54.833Z,3.03
2022-08-25T16:52:59.304Z,2.85
2022-08-25T16:55:45.516Z,2.45
2022-08-25T16:58:33.111Z,4.15
2022-08-25T17:01:18.902Z,5.35
2022-08-25T17:04:05.094Z,3.28
2022-08-25T17:06:51.883Z,4.07
2022-08-25T17:09:38.081Z,2.35
2022-08-25T17:12:25.405Z,7.20
2022-08-25T17:15:11.047Z,4.65
2022-08-25T17:17:58.623Z,3.50
2022-08-25T17:20:45.392Z,3.65
2022-08-25T17:23:32.461Z,2.78
2022-08-25T17:26:19.921Z,2.28
2022-08-25T17:29:13.930Z,5.60
2022-08-25T17:32:00.281Z,5.25
2022-08-25T17:34:46.453Z,3.38
2022-08-25T17:37:31.907Z,5.40
2022-08-25T17:40:17.527Z,7.43
2022-08-25T17:43:03.759Z,4.07
2022-08-25T17:45:49.665Z,6.60
2022-08-25T17:48:37.036Z,2.42
2022-08-25T17:51:23.455Z,3.55
2022-08-25T17:54:09.325Z,3.72
2022-08-25T17:56:55.307Z,7.45
2022-08-25T17:59:40.661Z,4.53
2022-08-25T18:02:26.536Z,2.50
2022-08-25T18:05:16.237Z,3.17
2022-08-25T18:08:04.366Z,6.65
2022-08-25T18:10:57.142Z,4.53
2022-08-25T18:13:43.247Z,2.72
2022-08-25T18:16:29.035Z,4.13
2022-08-25T18:19:15.726Z,3.45
2022-08-25T18:22:04.337Z,4.65
2022-08-25T18:24:49.958Z,4.18
2022-08-25T18:27:36.872Z,6.05
2022-08-25T18:30:24.214Z,4.88
2022-08-25T18:33:12.701Z,5.10
2022-08-25T18:35:59.123Z,4.20
2022-08-25T18:39:02.654Z,2.88
2022-08-25T18:41:48.254Z,6.65
2022-08-25T18:44:34.329Z,6.15
2022-08-25T18:47:20.312Z,9.88
2022-08-25T18:50:07.933Z,10.18
2022-08-25T18:52:55.231Z,11.60
2022-08-25T18:55:43.155Z,15.25
2022-08-25T18:58:29.492Z,12.50
2022-08-25T19:01:17.146Z,18.42
2022-08-25T19:04:04.822Z,17.98
2022-08-25T19:06:51.775Z,19.20
2022-08-25T19:09:38.031Z,21.45
2022-08-25T19:12:23.843Z,22.10
2022-08-25T19:15:10.175Z,24.00
2022-08-25T19:17:57.131Z,24.80
2022-08-25T19:20:44.960Z,24.80
2022-08-25T19:23:32.625Z,21.50
2022-08-25T19:26:20.272Z,22.23
2022-08-25T19:29:11.055Z,27.52
2022-08-25T19:31:57.551Z,23.83
2022-08-25T19:34:51.439Z,23.02
2022-08-25T19:37:37.350Z,32.15
2022-08-25T19:40:26.269Z,27.27
2022-08-25T19:43:13.473Z,29.17
2022-08-25T19:46:01.688Z,30.40
2022-08-25T19:48:49.193Z,32.25
2022-08-25T19:51:38.863Z,34.47
2022-08-25T19:54:36.578Z,29.95
2022-08-25T19:57:28.194Z,35.33
2022-08-25T20:00:31.470Z,33.17
2022-08-25T20:03:20.487Z,31.00
2022-08-25T20:06:08.051Z,35.88
2022-08-25T20:08:58.995Z,35.10
2022-08-25T20:11:46.632Z,37.00
2022-08-25T20:14:35.216Z,40.88
2022-08-25T20:17:23.896Z,36.15
2022-08-25T20:20:16.112Z,36.25
2022-08-25T20:23:20.749Z,36.28
2022-08-25T20:26:09.175Z,38.22
2022-08-25T20:28:56.132Z,36.65
2022-08-25T20:31:41.629Z,38.17
2022-08-25T20:34:29.984Z,41.47
2022-08-25T20:37:18.413Z,39.28
2022-08-25T20:40:07.935Z,38.72
2022-08-25T20:42:57.523Z,46.38
2022-08-25T20:45:43.598Z,36.85
2022-08-25T20:48:29.496Z,41.22
2022-08-25T20:51:15.545Z,41.17
2022-08-25T20:54:04.396Z,39.63
2022-08-25T20:56:50.546Z,36.85
2022-08-25T20:59:36.874Z,36.90
2022-08-25T21:02:24.024Z,39.22
2022-08-25T21:05:09.792Z,45.28
2022-08-25T21:07:55.460Z,43.25
2022-08-25T21:10:41.435Z,42.97
2022-08-25T21:13:27.056Z,42.58
2022-08-25T21:16:12.557Z,45.03
2022-08-25T21:19:01.005Z,44.28
2022-08-25T21:21:47.479Z,43.08
2022-08-25T21:24:33.505Z,42.20
2022-08-25T21:27:19.618Z,45.72
2022-08-25T21:30:06.539Z,39.95
2022-08-25T21:32:53.935Z,39.22
2022-08-25T21:35:41.209Z,43.13
2022-08-25T21:38:29.367Z,42.65
2022-08-25T21:41:21.413Z,41.00
2022-08-25T21:44:07.906Z,41.17
2022-08-25T21:46:54.205Z,45.80
2022-08-25T21:49:40.447Z,42.10
2022-08-25T21:52:26.275Z,41.67
2022-08-25T21:55:15.807Z,40.17
2022-08-25T21:58:01.735Z,38.70
2022-08-25T22:00:47.598Z,37.90
2022-08-25T22:03:34.800Z,36.40
2022-08-25T22:06:24.279Z,36.95
2022-08-25T22:09:12.832Z,34.88
2022-08-25T22:12:00.092Z,30.38
2022-08-25T22:14:45.770Z,32.83
2022-08-25T22:17:33.485Z,37.92
2022-08-25T22:20:19.605Z,33.80
2022-08-25T22:23:06.512Z,29.85
2022-08-25T22:25:52.244Z,29.33
2022-08-25T22:28:38.000Z,31.30
2022-08-25T22:31:24.535Z,30.83
2022-08-25T22:34:10.148Z,32.03
2022-08-25T22:36:59.497Z,34.70
2022-08-25T22:39:46.754Z,36.92
2022-08-25T22:42:32.815Z,33.67
2022-08-25T22:45:20.815Z,40.10
2022-08-25T22:48:06.555Z,39.17
2022-08-25T22:50:52.462Z,33.88
2022-08-25T22:53:39.727Z,35.90
2022-08-25T22:56:30.867Z,43.90
2022-08-25T22:59:16.859Z,37.15
2022-08-25T23:02:03.885Z,41.20
2022-08-25T23:04:49.921Z,34.80
2022-08-25T23:07:37.786Z,29.73
2022-08-25T23:10:25.737Z,34.65
2022-08-25T23:13:11.446Z,26.50
2022-08-25T23:16:12.254Z,30.70
2022-08-25T23:18:58.853Z,29.67
2022-08-25T23:22:03.705Z,31.52
2022-08-25T23:24:53.416Z,23.98
2022-08-25T23:27:39.254Z,31.17
2022-08-25T23:30:27.235Z,26.73
2022-08-25T23:33:18.673Z,29.02
2022-08-25T23:36:10.595Z,28.45
2022-08-25T23:38:56.358Z,29.77
2022-08-25T23:41:42.744Z,24.17
2022-08-25T23:44:28.708Z,25.85
2022-08-25T23:47:14.737Z,21.30
2022-08-25T23:50:00.749Z,23.73
2022-08-25T23:52:46.382Z,22.10
2022-08-25T23:55:33.661Z,20.90
2022-08-25T23:58:19.814Z,19.17
